sensor_id;sensor_type;location;lat;lon;timestamp;P1;durP1;ratioP1;P2;durP2;ratioP2
77457;SDS011;66541;49.346;8.648;2023-03-23T00:02:18;2.53;;;0.50;;
77457;SDS011;66541;49.346;8.648;2023-03-23T00:04:44;6.03;;;0.80;;
77457;SDS011;66541;49.346;8.648;2023-03-23T00:07:09;3.45;;;0.60;;
77457;SDS011;66541;49.346;8.648;2023-03-23T00:09:37;3.40;;;0.63;;
77457;SDS011;66541;49.346;8.648;2023-03-23T00:12:06;3.58;;;0.88;;
77457;SDS011;66541;49.346;8.648;2023-03-23T00:14:32;3.55;;;0.60;;
77457;SDS011;66541;49.346;8.648;2023-03-23T00:17:07;4.07;;;0.57;;
77457;SDS011;66541;49.346;8.648;2023-03-23T00:19:34;2.92;;;0.57;;
77457;SDS011;66541;49.346;8.648;2023-03-23T00:22:09;3.17;;;0.38;;
77457;SDS011;66541;49.346;8.648;2023-03-23T00:24:35;3.25;;;0.70;;
77457;SDS011;66541;49.346;8.648;2023-03-23T00:27:01;3.28;;;0.47;;
77457;SDS011;66541;49.346;8.648;2023-03-23T00:29:28;5.13;;;0.50;;
77457;SDS011;66541;49.346;8.648;2023-03-23T00:31:53;4.18;;;0.50;;
77457;SDS011;66541;49.346;8.648;2023-03-23T00:34:22;3.83;;;0.55;;
77457;SDS011;66541;49.346;8.648;2023-03-23T00:36:50;3.03;;;0.65;;
77457;SDS011;66541;49.346;8.648;2023-03-23T00:39:18;2.53;;;0.40;;
77457;SDS011;66541;49.346;8.648;2023-03-23T00:41:45;3.58;;;0.50;;
77457;SDS011;66541;49.346;8.648;2023-03-23T00:44:12;2.80;;;0.40;;
77457;SDS011;66541;49.346;8.648;2023-03-23T00:46:44;2.25;;;0.40;;
77457;SDS011;66541;49.346;8.648;2023-03-23T00:49:18;2.28;;;0.47;;
77457;SDS011;66541;49.346;8.648;2023-03-23T00:51:45;3.88;;;0.75;;
77457;SDS011;66541;49.346;8.648;2023-03-23T00:54:11;5.25;;;0.70;;
77457;SDS011;66541;49.346;8.648;2023-03-23T00:56:37;3.13;;;0.40;;
77457;SDS011;66541;49.346;8.648;2023-03-23T00:59:04;3.03;;;0.70;;
77457;SDS011;66541;49.346;8.648;2023-03-23T01:01:30;2.72;;;0.35;;
77457;SDS011;66541;49.346;8.648;2023-03-23T01:03:55;2.88;;;0.60;;
77457;SDS011;66541;49.346;8.648;2023-03-23T01:06:25;2.97;;;0.52;;
77457;SDS011;66541;49.346;8.648;2023-03-23T01:08:51;2.83;;;0.82;;
77457;SDS011;66541;49.346;8.648;2023-03-23T01:11:18;4.15;;;1.13;;
77457;SDS011;66541;49.346;8.648;2023-03-23T01:13:44;2.75;;;0.55;;
77457;SDS011;66541;49.346;8.648;2023-03-23T01:16:10;3.72;;;0.40;;
77457;SDS011;66541;49.346;8.648;2023-03-23T01:18:36;3.67;;;0.75;;
77457;SDS011;66541;49.346;8.648;2023-03-23T01:21:05;4.85;;;0.50;;
77457;SDS011;66541;49.346;8.648;2023-03-23T01:23:35;1.83;;;0.40;;
77457;SDS011;66541;49.346;8.648;2023-03-23T01:26:02;2.13;;;0.30;;
77457;SDS011;66541;49.346;8.648;2023-03-23T01:28:32;2.95;;;0.30;;
77457;SDS011;66541;49.346;8.648;2023-03-23T01:31:05;2.70;;;0.32;;
77457;SDS011;66541;49.346;8.648;2023-03-23T01:33:32;3.22;;;0.30;;
77457;SDS011;66541;49.346;8.648;2023-03-23T01:36:01;2.42;;;0.35;;
77457;SDS011;66541;49.346;8.648;2023-03-23T01:38:28;5.03;;;0.75;;
77457;SDS011;66541;49.346;8.648;2023-03-23T01:40:53;3.42;;;0.50;;
77457;SDS011;66541;49.346;8.648;2023-03-23T01:45:51;3.33;;;0.63;;
77457;SDS011;66541;49.346;8.648;2023-03-23T01:53:40;2.58;;;0.60;;
77457;SDS011;66541;49.346;8.648;2023-03-23T01:56:08;3.10;;;0.40;;
77457;SDS011;66541;49.346;8.648;2023-03-23T01:58:38;4.28;;;0.88;;
77457;SDS011;66541;49.346;8.648;2023-03-23T02:01:06;2.65;;;0.30;;
77457;SDS011;66541;49.346;8.648;2023-03-23T02:03:36;4.30;;;0.82;;
77457;SDS011;66541;49.346;8.648;2023-03-23T02:06:03;2.30;;;0.25;;
77457;SDS011;66541;49.346;8.648;2023-03-23T02:08:29;2.83;;;0.40;;
77457;SDS011;66541;49.346;8.648;2023-03-23T02:10:58;3.33;;;0.60;;
77457;SDS011;66541;49.346;8.648;2023-03-23T02:13:23;5.55;;;0.60;;
77457;SDS011;66541;49.346;8.648;2023-03-23T02:15:53;2.45;;;0.30;;
77457;SDS011;66541;49.346;8.648;2023-03-23T02:35:49;3.63;;;0.52;;
77457;SDS011;66541;49.346;8.648;2023-03-23T02:38:19;2.83;;;0.47;;
77457;SDS011;66541;49.346;8.648;2023-03-23T02:40:47;3.13;;;0.38;;
77457;SDS011;66541;49.346;8.648;2023-03-23T02:43:15;2.70;;;0.30;;
77457;SDS011;66541;49.346;8.648;2023-03-23T02:45:43;2.70;;;0.35;;
77457;SDS011;66541;49.346;8.648;2023-03-23T02:48:09;1.92;;;0.40;;
77457;SDS011;66541;49.346;8.648;2023-03-23T02:50:37;2.38;;;0.30;;
77457;SDS011;66541;49.346;8.648;2023-03-23T02:53:07;2.17;;;0.50;;
77457;SDS011;66541;49.346;8.648;2023-03-23T02:55:34;2.42;;;0.30;;
77457;SDS011;66541;49.346;8.648;2023-03-23T02:58:05;3.15;;;0.50;;
77457;SDS011;66541;49.346;8.648;2023-03-23T03:00:31;1.95;;;0.30;;
77457;SDS011;66541;49.346;8.648;2023-03-23T03:02:56;3.00;;;0.35;;
77457;SDS011;66541;49.346;8.648;2023-03-23T03:05:43;2.55;;;0.30;;
77457;SDS011;66541;49.346;8.648;2023-03-23T03:10:44;2.50;;;0.50;;
77457;SDS011;66541;49.346;8.648;2023-03-23T03:13:18;2.30;;;0.40;;
77457;SDS011;66541;49.346;8.648;2023-03-23T03:19:06;2.28;;;0.40;;
77457;SDS011;66541;49.346;8.648;2023-03-23T03:21:37;2.25;;;0.45;;
77457;SDS011;66541;49.346;8.648;2023-03-23T03:24:06;1.88;;;0.30;;
77457;SDS011;66541;49.346;8.648;2023-03-23T03:26:36;2.42;;;0.45;;
77457;SDS011;66541;49.346;8.648;2023-03-23T03:29:03;3.25;;;0.40;;
77457;SDS011;66541;49.346;8.648;2023-03-23T03:31:29;2.72;;;0.50;;
77457;SDS011;66541;49.346;8.648;2023-03-23T03:33:57;3.55;;;0.60;;
77457;SDS011;66541;49.346;8.648;2023-03-23T03:36:27;2.92;;;0.43;;
77457;SDS011;66541;49.346;8.648;2023-03-23T03:38:53;2.17;;;0.38;;
77457;SDS011;66541;49.346;8.648;2023-03-23T03:41:19;3.15;;;0.40;;
77457;SDS011;66541;49.346;8.648;2023-03-23T03:43:44;3.53;;;0.55;;
77457;SDS011;66541;49.346;8.648;2023-03-23T03:46:10;4.18;;;0.55;;
77457;SDS011;66541;49.346;8.648;2023-03-23T03:48:35;2.63;;;0.50;;
77457;SDS011;66541;49.346;8.648;2023-03-23T03:51:01;5.57;;;0.65;;
77457;SDS011;66541;49.346;8.648;2023-03-23T03:53:27;3.90;;;0.85;;
77457;SDS011;66541;49.346;8.648;2023-03-23T03:55:53;2.95;;;0.60;;
77457;SDS011;66541;49.346;8.648;2023-03-23T03:58:24;3.28;;;0.50;;
77457;SDS011;66541;49.346;8.648;2023-03-23T04:00:50;2.33;;;0.43;;
77457;SDS011;66541;49.346;8.648;2023-03-23T04:03:17;1.80;;;0.43;;
77457;SDS011;66541;49.346;8.648;2023-03-23T04:05:43;3.15;;;0.50;;
77457;SDS011;66541;49.346;8.648;2023-03-23T04:08:09;2.17;;;0.40;;
77457;SDS011;66541;49.346;8.648;2023-03-23T04:10:36;2.83;;;0.32;;
77457;SDS011;66541;49.346;8.648;2023-03-23T04:13:01;2.15;;;0.57;;
77457;SDS011;66541;49.346;8.648;2023-03-23T04:15:29;4.35;;;0.90;;
77457;SDS011;66541;49.346;8.648;2023-03-23T04:17:55;3.28;;;0.57;;
77457;SDS011;66541;49.346;8.648;2023-03-23T04:20:21;3.47;;;0.50;;
77457;SDS011;66541;49.346;8.648;2023-03-23T04:22:47;5.03;;;0.73;;
77457;SDS011;66541;49.346;8.648;2023-03-23T04:25:17;2.42;;;0.40;;
77457;SDS011;66541;49.346;8.648;2023-03-23T04:27:45;3.35;;;0.60;;
77457;SDS011;66541;49.346;8.648;2023-03-23T04:30:17;2.88;;;0.68;;
77457;SDS011;66541;49.346;8.648;2023-03-23T04:32:44;4.95;;;0.50;;
77457;SDS011;66541;49.346;8.648;2023-03-23T04:35:10;3.67;;;0.60;;
77457;SDS011;66541;49.346;8.648;2023-03-23T04:37:38;3.17;;;0.60;;
77457;SDS011;66541;49.346;8.648;2023-03-23T04:40:06;2.88;;;0.60;;
77457;SDS011;66541;49.346;8.648;2023-03-23T04:42:35;3.47;;;0.93;;
77457;SDS011;66541;49.346;8.648;2023-03-23T04:45:02;2.83;;;0.50;;
77457;SDS011;66541;49.346;8.648;2023-03-23T04:47:27;2.38;;;0.60;;
77457;SDS011;66541;49.346;8.648;2023-03-23T04:49:56;4.47;;;0.70;;
77457;SDS011;66541;49.346;8.648;2023-03-23T04:52:22;3.33;;;0.68;;
77457;SDS011;66541;49.346;8.648;2023-03-23T04:54:50;3.10;;;0.73;;
77457;SDS011;66541;49.346;8.648;2023-03-23T04:57:16;3.78;;;0.50;;
77457;SDS011;66541;49.346;8.648;2023-03-23T04:59:42;3.10;;;0.80;;
77457;SDS011;66541;49.346;8.648;2023-03-23T05:02:09;4.18;;;0.55;;
77457;SDS011;66541;49.346;8.648;2023-03-23T05:04:38;3.50;;;0.70;;
77457;SDS011;66541;49.346;8.648;2023-03-23T05:07:05;3.13;;;0.60;;
77457;SDS011;66541;49.346;8.648;2023-03-23T05:09:33;4.43;;;0.88;;
77457;SDS011;66541;49.346;8.648;2023-03-23T05:12:03;4.18;;;0.70;;
77457;SDS011;66541;49.346;8.648;2023-03-23T05:14:32;4.57;;;1.00;;
77457;SDS011;66541;49.346;8.648;2023-03-23T05:16:57;6.18;;;0.80;;
77457;SDS011;66541;49.346;8.648;2023-03-23T05:19:23;4.13;;;0.68;;
77457;SDS011;66541;49.346;8.648;2023-03-23T05:21:48;3.75;;;0.90;;
77457;SDS011;66541;49.346;8.648;2023-03-23T05:24:13;2.92;;;0.70;;
77457;SDS011;66541;49.346;8.648;2023-03-23T05:26:39;2.80;;;0.82;;
77457;SDS011;66541;49.346;8.648;2023-03-23T05:29:04;2.47;;;0.60;;
77457;SDS011;66541;49.346;8.648;2023-03-23T05:31:29;3.97;;;1.00;;
77457;SDS011;66541;49.346;8.648;2023-03-23T05:33:55;3.67;;;0.60;;
77457;SDS011;66541;49.346;8.648;2023-03-23T05:36:21;3.40;;;0.80;;
77457;SDS011;66541;49.346;8.648;2023-03-23T05:38:47;4.22;;;0.77;;
77457;SDS011;66541;49.346;8.648;2023-03-23T05:41:14;3.53;;;0.73;;
77457;SDS011;66541;49.346;8.648;2023-03-23T05:43:40;3.35;;;0.73;;
77457;SDS011;66541;49.346;8.648;2023-03-23T05:46:05;2.90;;;0.68;;
77457;SDS011;66541;49.346;8.648;2023-03-23T05:48:31;3.55;;;0.75;;
77457;SDS011;66541;49.346;8.648;2023-03-23T05:50:57;3.35;;;0.63;;
77457;SDS011;66541;49.346;8.648;2023-03-23T05:53:23;4.72;;;0.80;;
77457;SDS011;66541;49.346;8.648;2023-03-23T05:55:49;3.63;;;0.77;;
77457;SDS011;66541;49.346;8.648;2023-03-23T05:58:14;3.80;;;0.70;;
77457;SDS011;66541;49.346;8.648;2023-03-23T06:00:40;3.28;;;0.73;;
77457;SDS011;66541;49.346;8.648;2023-03-23T06:03:06;4.38;;;0.70;;
77457;SDS011;66541;49.346;8.648;2023-03-23T06:05:31;4.13;;;0.70;;
77457;SDS011;66541;49.346;8.648;2023-03-23T06:07:57;4.43;;;0.70;;
77457;SDS011;66541;49.346;8.648;2023-03-23T06:10:23;4.60;;;1.17;;
77457;SDS011;66541;49.346;8.648;2023-03-23T06:12:49;3.40;;;0.55;;
77457;SDS011;66541;49.346;8.648;2023-03-23T06:15:15;4.22;;;0.60;;
77457;SDS011;66541;49.346;8.648;2023-03-23T06:17:40;3.03;;;0.65;;
77457;SDS011;66541;49.346;8.648;2023-03-23T06:20:06;2.08;;;0.40;;
77457;SDS011;66541;49.346;8.648;2023-03-23T06:22:34;2.97;;;0.43;;
77457;SDS011;66541;49.346;8.648;2023-03-23T06:24:59;3.17;;;0.38;;
77457;SDS011;66541;49.346;8.648;2023-03-23T06:27:25;2.70;;;0.50;;
77457;SDS011;66541;49.346;8.648;2023-03-23T06:29:50;2.55;;;0.50;;
77457;SDS011;66541;49.346;8.648;2023-03-23T06:32:15;2.45;;;0.65;;
77457;SDS011;66541;49.346;8.648;2023-03-23T06:34:41;2.75;;;0.55;;
77457;SDS011;66541;49.346;8.648;2023-03-23T06:37:09;2.67;;;0.40;;
77457;SDS011;66541;49.346;8.648;2023-03-23T06:39:35;2.45;;;0.40;;
77457;SDS011;66541;49.346;8.648;2023-03-23T06:42:02;2.35;;;0.40;;
77457;SDS011;66541;49.346;8.648;2023-03-23T06:44:27;2.65;;;0.40;;
77457;SDS011;66541;49.346;8.648;2023-03-23T06:46:52;1.25;;;0.28;;
77457;SDS011;66541;49.346;8.648;2023-03-23T06:49:18;2.30;;;0.35;;
77457;SDS011;66541;49.346;8.648;2023-03-23T06:51:44;1.77;;;0.20;;
77457;SDS011;66541;49.346;8.648;2023-03-23T06:54:09;3.15;;;0.60;;
77457;SDS011;66541;49.346;8.648;2023-03-23T06:56:34;2.15;;;0.30;;
77457;SDS011;66541;49.346;8.648;2023-03-23T06:59:00;5.28;;;0.75;;
77457;SDS011;66541;49.346;8.648;2023-03-23T07:01:25;3.50;;;0.60;;
77457;SDS011;66541;49.346;8.648;2023-03-23T07:03:52;4.45;;;0.50;;
77457;SDS011;66541;49.346;8.648;2023-03-23T07:06:18;2.58;;;0.40;;
77457;SDS011;66541;49.346;8.648;2023-03-23T07:08:44;3.20;;;0.40;;
77457;SDS011;66541;49.346;8.648;2023-03-23T07:11:09;3.40;;;0.60;;
77457;SDS011;66541;49.346;8.648;2023-03-23T07:13:35;3.67;;;0.60;;
77457;SDS011;66541;49.346;8.648;2023-03-23T07:16:03;2.67;;;0.50;;
77457;SDS011;66541;49.346;8.648;2023-03-23T07:18:29;4.22;;;0.57;;
77457;SDS011;66541;49.346;8.648;2023-03-23T07:20:55;3.83;;;0.40;;
77457;SDS011;66541;49.346;8.648;2023-03-23T07:23:20;3.70;;;0.50;;
77457;SDS011;66541;49.346;8.648;2023-03-23T07:25:46;3.08;;;0.50;;
77457;SDS011;66541;49.346;8.648;2023-03-23T07:28:13;2.63;;;0.40;;
77457;SDS011;66541;49.346;8.648;2023-03-23T07:30:38;2.47;;;0.30;;
77457;SDS011;66541;49.346;8.648;2023-03-23T07:33:05;2.80;;;0.40;;
77457;SDS011;66541;49.346;8.648;2023-03-23T07:35:31;1.33;;;0.30;;
77457;SDS011;66541;49.346;8.648;2023-03-23T07:37:56;6.28;;;1.65;;
77457;SDS011;66541;49.346;8.648;2023-03-23T07:40:22;3.80;;;0.50;;
77457;SDS011;66541;49.346;8.648;2023-03-23T07:42:51;3.60;;;0.55;;
77457;SDS011;66541;49.346;8.648;2023-03-23T07:45:21;2.65;;;0.35;;
77457;SDS011;66541;49.346;8.648;2023-03-23T07:47:46;3.00;;;0.43;;
77457;SDS011;66541;49.346;8.648;2023-03-23T07:50:12;2.58;;;0.40;;
77457;SDS011;66541;49.346;8.648;2023-03-23T07:52:38;2.88;;;0.45;;
77457;SDS011;66541;49.346;8.648;2023-03-23T07:55:05;2.33;;;0.30;;
77457;SDS011;66541;49.346;8.648;2023-03-23T07:57:31;2.65;;;0.55;;
77457;SDS011;66541;49.346;8.648;2023-03-23T07:59:57;2.83;;;0.40;;
77457;SDS011;66541;49.346;8.648;2023-03-23T08:02:23;2.35;;;0.30;;
77457;SDS011;66541;49.346;8.648;2023-03-23T08:04:49;2.90;;;0.50;;
77457;SDS011;66541;49.346;8.648;2023-03-23T08:07:14;1.77;;;0.30;;
77457;SDS011;66541;49.346;8.648;2023-03-23T08:09:41;3.17;;;0.43;;
77457;SDS011;66541;49.346;8.648;2023-03-23T08:12:07;2.30;;;0.30;;
77457;SDS011;66541;49.346;8.648;2023-03-23T08:14:32;2.15;;;0.50;;
77457;SDS011;66541;49.346;8.648;2023-03-23T08:16:57;3.78;;;0.52;;
77457;SDS011;66541;49.346;8.648;2023-03-23T08:19:23;1.75;;;0.30;;
77457;SDS011;66541;49.346;8.648;2023-03-23T08:21:49;1.63;;;0.28;;
77457;SDS011;66541;49.346;8.648;2023-03-23T08:24:14;1.88;;;0.20;;
77457;SDS011;66541;49.346;8.648;2023-03-23T08:26:40;2.72;;;0.30;;
77457;SDS011;66541;49.346;8.648;2023-03-23T08:29:06;1.80;;;0.30;;
77457;SDS011;66541;49.346;8.648;2023-03-23T08:31:32;2.22;;;0.40;;
77457;SDS011;66541;49.346;8.648;2023-03-23T08:33:59;3.55;;;0.35;;
77457;SDS011;66541;49.346;8.648;2023-03-23T08:36:25;2.30;;;0.20;;
77457;SDS011;66541;49.346;8.648;2023-03-23T08:38:51;3.55;;;0.65;;
77457;SDS011;66541;49.346;8.648;2023-03-23T08:41:17;3.03;;;0.40;;
77457;SDS011;66541;49.346;8.648;2023-03-23T08:43:42;3.53;;;0.47;;
77457;SDS011;66541;49.346;8.648;2023-03-23T08:46:08;1.70;;;0.30;;
77457;SDS011;66541;49.346;8.648;2023-03-23T08:48:36;3.65;;;0.40;;
77457;SDS011;66541;49.346;8.648;2023-03-23T08:51:05;3.88;;;0.70;;
77457;SDS011;66541;49.346;8.648;2023-03-23T08:53:31;3.58;;;0.47;;
77457;SDS011;66541;49.346;8.648;2023-03-23T08:56:05;3.50;;;0.38;;
77457;SDS011;66541;49.346;8.648;2023-03-23T08:58:32;2.25;;;0.38;;
77457;SDS011;66541;49.346;8.648;2023-03-23T09:00:58;2.72;;;0.57;;
77457;SDS011;66541;49.346;8.648;2023-03-23T09:03:24;3.75;;;0.30;;
77457;SDS011;66541;49.346;8.648;2023-03-23T09:05:50;2.60;;;0.40;;
77457;SDS011;66541;49.346;8.648;2023-03-23T09:08:15;2.70;;;0.40;;
77457;SDS011;66541;49.346;8.648;2023-03-23T09:10:40;3.47;;;0.30;;
77457;SDS011;66541;49.346;8.648;2023-03-23T09:13:06;2.72;;;0.40;;
77457;SDS011;66541;49.346;8.648;2023-03-23T09:15:31;2.33;;;0.30;;
77457;SDS011;66541;49.346;8.648;2023-03-23T09:17:57;2.05;;;0.40;;
77457;SDS011;66541;49.346;8.648;2023-03-23T09:20:24;3.42;;;0.50;;
77457;SDS011;66541;49.346;8.648;2023-03-23T09:22:51;2.08;;;0.40;;
77457;SDS011;66541;49.346;8.648;2023-03-23T09:25:18;2.58;;;0.40;;
77457;SDS011;66541;49.346;8.648;2023-03-23T09:27:48;3.03;;;0.40;;
77457;SDS011;66541;49.346;8.648;2023-03-23T09:30:18;4.45;;;0.40;;
77457;SDS011;66541;49.346;8.648;2023-03-23T09:32:44;2.95;;;0.47;;
77457;SDS011;66541;49.346;8.648;2023-03-23T09:35:10;3.88;;;0.55;;
77457;SDS011;66541;49.346;8.648;2023-03-23T09:37:37;2.50;;;0.60;;
77457;SDS011;66541;49.346;8.648;2023-03-23T09:40:07;3.47;;;0.85;;
77457;SDS011;66541;49.346;8.648;2023-03-23T09:50:45;3.25;;;0.47;;
77457;SDS011;66541;49.346;8.648;2023-03-23T09:53:16;3.00;;;0.40;;
77457;SDS011;66541;49.346;8.648;2023-03-23T09:55:44;2.90;;;0.40;;
77457;SDS011;66541;49.346;8.648;2023-03-23T09:58:27;3.85;;;0.50;;
77457;SDS011;66541;49.346;8.648;2023-03-23T10:01:04;3.60;;;0.57;;
77457;SDS011;66541;49.346;8.648;2023-03-23T10:03:42;2.80;;;0.47;;
77457;SDS011;66541;49.346;8.648;2023-03-23T10:06:15;2.92;;;0.60;;
77457;SDS011;66541;49.346;8.648;2023-03-23T10:08:47;3.75;;;0.50;;
77457;SDS011;66541;49.346;8.648;2023-03-23T10:11:30;5.75;;;0.63;;
77457;SDS011;66541;49.346;8.648;2023-03-23T10:17:13;2.58;;;0.47;;
77457;SDS011;66541;49.346;8.648;2023-03-23T10:19:46;2.97;;;0.40;;
77457;SDS011;66541;49.346;8.648;2023-03-23T10:22:15;3.40;;;0.38;;
77457;SDS011;66541;49.346;8.648;2023-03-23T10:24:49;2.40;;;0.68;;
77457;SDS011;66541;49.346;8.648;2023-03-23T10:27:31;2.78;;;0.60;;
77457;SDS011;66541;49.346;8.648;2023-03-23T10:30:02;4.05;;;0.57;;
77457;SDS011;66541;49.346;8.648;2023-03-23T10:32:53;2.97;;;0.52;;
77457;SDS011;66541;49.346;8.648;2023-03-23T10:35:25;2.33;;;0.40;;
77457;SDS011;66541;49.346;8.648;2023-03-23T10:40:25;2.53;;;0.30;;
77457;SDS011;66541;49.346;8.648;2023-03-23T10:42:54;3.08;;;0.50;;
77457;SDS011;66541;49.346;8.648;2023-03-23T10:45:27;1.15;;;0.20;;
77457;SDS011;66541;49.346;8.648;2023-03-23T10:50:26;1.98;;;0.22;;
77457;SDS011;66541;49.346;8.648;2023-03-23T10:52:53;1.40;;;0.20;;
77457;SDS011;66541;49.346;8.648;2023-03-23T10:55:20;3.97;;;0.52;;
77457;SDS011;66541;49.346;8.648;2023-03-23T11:00:50;2.38;;;0.20;;
77457;SDS011;66541;49.346;8.648;2023-03-23T11:05:43;5.68;;;0.60;;
77457;SDS011;66541;49.346;8.648;2023-03-23T11:08:19;2.67;;;0.30;;
77457;SDS011;66541;49.346;8.648;2023-03-23T11:13:19;3.88;;;0.52;;
77457;SDS011;66541;49.346;8.648;2023-03-23T11:15:46;1.98;;;0.50;;
77457;SDS011;66541;49.346;8.648;2023-03-23T11:18:20;3.20;;;0.30;;
77457;SDS011;66541;49.346;8.648;2023-03-23T11:20:52;2.33;;;0.40;;
77457;SDS011;66541;49.346;8.648;2023-03-23T11:23:24;2.03;;;0.22;;
77457;SDS011;66541;49.346;8.648;2023-03-23T11:28:35;1.92;;;0.70;;
77457;SDS011;66541;49.346;8.648;2023-03-23T11:31:03;2.88;;;0.30;;
77457;SDS011;66541;49.346;8.648;2023-03-23T11:34:16;2.40;;;0.50;;
77457;SDS011;66541;49.346;8.648;2023-03-23T11:36:21;4.18;;;0.63;;
77457;SDS011;66541;49.346;8.648;2023-03-23T11:38:51;2.67;;;0.40;;
77457;SDS011;66541;49.346;8.648;2023-03-23T11:41:21;3.13;;;0.40;;
77457;SDS011;66541;49.346;8.648;2023-03-23T11:43:47;2.50;;;0.55;;
77457;SDS011;66541;49.346;8.648;2023-03-23T11:48:49;2.60;;;0.52;;
77457;SDS011;66541;49.346;8.648;2023-03-23T11:51:39;2.17;;;0.40;;
77457;SDS011;66541;49.346;8.648;2023-03-23T11:56:52;3.40;;;0.75;;
77457;SDS011;66541;49.346;8.648;2023-03-23T11:59:26;4.10;;;0.60;;
77457;SDS011;66541;49.346;8.648;2023-03-23T12:08:00;3.08;;;0.60;;
77457;SDS011;66541;49.346;8.648;2023-03-23T12:10:40;2.97;;;0.70;;
77457;SDS011;66541;49.346;8.648;2023-03-23T12:16:14;3.00;;;0.45;;
77457;SDS011;66541;49.346;8.648;2023-03-23T12:29:47;3.97;;;0.63;;
77457;SDS011;66541;49.346;8.648;2023-03-23T12:35:17;2.75;;;0.55;;
77457;SDS011;66541;49.346;8.648;2023-03-23T12:37:55;2.92;;;0.68;;
77457;SDS011;66541;49.346;8.648;2023-03-23T12:40:44;3.45;;;0.40;;
77457;SDS011;66541;49.346;8.648;2023-03-23T12:49:10;2.60;;;0.63;;
77457;SDS011;66541;49.346;8.648;2023-03-23T12:56:54;2.72;;;0.40;;
77457;SDS011;66541;49.346;8.648;2023-03-23T13:02:27;3.17;;;0.65;;
77457;SDS011;66541;49.346;8.648;2023-03-23T13:04:57;4.07;;;0.57;;
77457;SDS011;66541;49.346;8.648;2023-03-23T13:07:28;3.75;;;0.55;;
77457;SDS011;66541;49.346;8.648;2023-03-23T13:10:02;2.70;;;0.40;;
77457;SDS011;66541;49.346;8.648;2023-03-23T13:12:33;3.40;;;0.68;;
77457;SDS011;66541;49.346;8.648;2023-03-23T13:15:16;3.60;;;0.60;;
77457;SDS011;66541;49.346;8.648;2023-03-23T13:17:50;2.40;;;0.40;;
77457;SDS011;66541;49.346;8.648;2023-03-23T13:28:29;2.47;;;0.32;;
77457;SDS011;66541;49.346;8.648;2023-03-23T13:31:03;6.38;;;0.45;;
77457;SDS011;66541;49.346;8.648;2023-03-23T13:33:36;1.95;;;0.40;;
77457;SDS011;66541;49.346;8.648;2023-03-23T13:36:04;2.33;;;0.40;;
77457;SDS011;66541;49.346;8.648;2023-03-23T13:38:37;1.95;;;0.38;;
77457;SDS011;66541;49.346;8.648;2023-03-23T13:41:07;3.22;;;0.52;;
77457;SDS011;66541;49.346;8.648;2023-03-23T13:43:35;3.50;;;0.70;;
77457;SDS011;66541;49.346;8.648;2023-03-23T13:46:09;2.55;;;0.50;;
77457;SDS011;66541;49.346;8.648;2023-03-23T13:48:48;3.38;;;0.70;;
77457;SDS011;66541;49.346;8.648;2023-03-23T13:59:30;3.47;;;0.40;;
77457;SDS011;66541;49.346;8.648;2023-03-23T14:02:21;3.80;;;0.50;;
77457;SDS011;66541;49.346;8.648;2023-03-23T14:04:55;5.00;;;0.70;;
77457;SDS011;66541;49.346;8.648;2023-03-23T14:07:21;2.08;;;0.22;;
77457;SDS011;66541;49.346;8.648;2023-03-23T14:09:49;2.50;;;0.50;;
77457;SDS011;66541;49.346;8.648;2023-03-23T14:12:18;2.60;;;0.70;;
77457;SDS011;66541;49.346;8.648;2023-03-23T14:14:45;3.15;;;0.52;;
77457;SDS011;66541;49.346;8.648;2023-03-23T14:17:16;2.55;;;0.50;;
77457;SDS011;66541;49.346;8.648;2023-03-23T14:19:52;2.47;;;0.45;;
77457;SDS011;66541;49.346;8.648;2023-03-23T14:22:53;2.65;;;0.40;;
77457;SDS011;66541;49.346;8.648;2023-03-23T14:27:37;2.25;;;0.30;;
77457;SDS011;66541;49.346;8.648;2023-03-23T14:30:07;3.78;;;0.43;;
77457;SDS011;66541;49.346;8.648;2023-03-23T14:32:34;1.83;;;0.40;;
77457;SDS011;66541;49.346;8.648;2023-03-23T14:35:01;2.15;;;0.40;;
77457;SDS011;66541;49.346;8.648;2023-03-23T14:37:31;2.17;;;0.40;;
77457;SDS011;66541;49.346;8.648;2023-03-23T14:39:57;2.88;;;0.40;;
77457;SDS011;66541;49.346;8.648;2023-03-23T14:42:27;2.58;;;0.30;;
77457;SDS011;66541;49.346;8.648;2023-03-23T14:44:55;2.53;;;0.50;;
77457;SDS011;66541;49.346;8.648;2023-03-23T14:47:25;1.73;;;0.40;;
77457;SDS011;66541;49.346;8.648;2023-03-23T14:49:53;2.17;;;0.40;;
77457;SDS011;66541;49.346;8.648;2023-03-23T14:52:21;1.85;;;0.25;;
77457;SDS011;66541;49.346;8.648;2023-03-23T14:54:48;2.58;;;0.50;;
77457;SDS011;66541;49.346;8.648;2023-03-23T14:57:15;5.10;;;0.50;;
77457;SDS011;66541;49.346;8.648;2023-03-23T14:59:42;2.35;;;0.38;;
77457;SDS011;66541;49.346;8.648;2023-03-23T15:02:10;1.38;;;0.20;;
77457;SDS011;66541;49.346;8.648;2023-03-23T15:04:48;3.70;;;0.45;;
77457;SDS011;66541;49.346;8.648;2023-03-23T15:07:16;3.17;;;0.40;;
77457;SDS011;66541;49.346;8.648;2023-03-23T15:09:43;2.58;;;0.40;;
77457;SDS011;66541;49.346;8.648;2023-03-23T15:12:17;3.63;;;0.45;;
77457;SDS011;66541;49.346;8.648;2023-03-23T15:14:46;3.88;;;0.65;;
77457;SDS011;66541;49.346;8.648;2023-03-23T15:17:34;5.43;;;1.10;;
77457;SDS011;66541;49.346;8.648;2023-03-23T15:20:11;2.58;;;0.47;;
77457;SDS011;66541;49.346;8.648;2023-03-23T15:22:45;4.50;;;0.45;;
77457;SDS011;66541;49.346;8.648;2023-03-23T15:27:42;3.83;;;0.52;;
77457;SDS011;66541;49.346;8.648;2023-03-23T15:30:27;3.20;;;0.60;;
77457;SDS011;66541;49.346;8.648;2023-03-23T15:32:55;3.53;;;0.60;;
77457;SDS011;66541;49.346;8.648;2023-03-23T15:35:25;3.65;;;0.60;;
77457;SDS011;66541;49.346;8.648;2023-03-23T15:37:52;6.13;;;0.70;;
77457;SDS011;66541;49.346;8.648;2023-03-23T15:40:23;5.75;;;0.98;;
77457;SDS011;66541;49.346;8.648;2023-03-23T15:42:50;5.07;;;0.68;;
77457;SDS011;66541;49.346;8.648;2023-03-23T15:45:19;4.68;;;1.17;;
77457;SDS011;66541;49.346;8.648;2023-03-23T15:47:50;5.15;;;1.30;;
77457;SDS011;66541;49.346;8.648;2023-03-23T15:52:53;5.63;;;1.52;;
77457;SDS011;66541;49.346;8.648;2023-03-23T15:55:26;5.88;;;1.52;;
77457;SDS011;66541;49.346;8.648;2023-03-23T15:58:00;9.48;;;2.00;;
77457;SDS011;66541;49.346;8.648;2023-03-23T16:00:26;6.28;;;1.80;;
77457;SDS011;66541;49.346;8.648;2023-03-23T16:02:56;4.95;;;1.05;;
77457;SDS011;66541;49.346;8.648;2023-03-23T16:05:24;4.78;;;1.00;;
77457;SDS011;66541;49.346;8.648;2023-03-23T16:07:49;5.25;;;1.13;;
77457;SDS011;66541;49.346;8.648;2023-03-23T16:10:17;5.45;;;1.23;;
77457;SDS011;66541;49.346;8.648;2023-03-23T16:12:44;5.13;;;1.33;;
77457;SDS011;66541;49.346;8.648;2023-03-23T16:15:09;4.97;;;1.10;;
77457;SDS011;66541;49.346;8.648;2023-03-23T16:17:35;6.45;;;1.60;;
77457;SDS011;66541;49.346;8.648;2023-03-23T16:20:00;4.45;;;1.42;;
77457;SDS011;66541;49.346;8.648;2023-03-23T16:22:27;6.28;;;1.13;;
77457;SDS011;66541;49.346;8.648;2023-03-23T16:24:52;5.57;;;1.65;;
77457;SDS011;66541;49.346;8.648;2023-03-23T16:27:18;5.18;;;0.70;;
77457;SDS011;66541;49.346;8.648;2023-03-23T16:29:45;3.80;;;0.80;;
77457;SDS011;66541;49.346;8.648;2023-03-23T16:32:10;3.03;;;0.70;;
77457;SDS011;66541;49.346;8.648;2023-03-23T16:34:36;3.42;;;0.75;;
77457;SDS011;66541;49.346;8.648;2023-03-23T16:37:02;4.07;;;0.90;;
77457;SDS011;66541;49.346;8.648;2023-03-23T16:39:27;4.30;;;0.98;;
77457;SDS011;66541;49.346;8.648;2023-03-23T16:41:52;4.53;;;1.40;;
77457;SDS011;66541;49.346;8.648;2023-03-23T16:44:18;5.78;;;1.20;;
77457;SDS011;66541;49.346;8.648;2023-03-23T16:46:43;5.45;;;1.20;;
77457;SDS011;66541;49.346;8.648;2023-03-23T16:49:08;4.03;;;1.10;;
77457;SDS011;66541;49.346;8.648;2023-03-23T16:51:34;5.18;;;1.08;;
77457;SDS011;66541;49.346;8.648;2023-03-23T16:53:59;5.35;;;1.20;;
77457;SDS011;66541;49.346;8.648;2023-03-23T16:56:24;3.83;;;0.88;;
77457;SDS011;66541;49.346;8.648;2023-03-23T16:58:50;4.45;;;1.35;;
77457;SDS011;66541;49.346;8.648;2023-03-23T17:01:15;6.72;;;1.60;;